createdAt,value
2018-08-07T00:02:22.542Z,16.30
2018-08-07T00:04:51.148Z,17.77
2018-08-07T00:07:19.746Z,17.80
2018-08-07T00:09:48.436Z,17.47
2018-08-07T00:12:17.144Z,15.90
2018-08-07T00:14:45.782Z,17.33
2018-08-07T00:17:14.494Z,17.23
2018-08-07T00:19:43.060Z,17.60
2018-08-07T00:22:11.693Z,17.90
2018-08-07T00:24:40.336Z,17.37
2018-08-07T00:27:08.916Z,17.93
2018-08-07T00:29:37.525Z,16.93
2018-08-07T00:32:06.160Z,18.53
2018-08-07T00:34:34.785Z,17.20
2018-08-07T00:37:03.476Z,17.93
2018-08-07T00:39:32.122Z,17.97
2018-08-07T00:42:00.855Z,17.50
2018-08-07T00:44:29.503Z,17.77
2018-08-07T00:46:58.076Z,16.97
2018-08-07T00:49:26.697Z,16.90
2018-08-07T00:51:55.373Z,17.27
2018-08-07T00:54:24.120Z,17.07
2018-08-07T00:56:52.776Z,17.97
2018-08-07T00:59:21.397Z,17.30
2018-08-07T01:01:50.026Z,17.23
2018-08-07T01:04:18.620Z,17.40
2018-08-07T01:06:47.306Z,17.43
2018-08-07T01:09:15.893Z,16.70
2018-08-07T01:11:44.531Z,17.60
2018-08-07T01:14:13.169Z,17.00
2018-08-07T01:16:41.799Z,18.80
2018-08-07T01:19:10.537Z,16.60
2018-08-07T01:21:39.232Z,17.43
2018-08-07T01:24:07.871Z,17.80
2018-08-07T01:26:36.542Z,17.97
2018-08-07T01:29:06.580Z,17.20
2018-08-07T01:31:34.962Z,17.20
2018-08-07T01:34:03.564Z,17.73
2018-08-07T01:36:32.170Z,17.20
2018-08-07T01:39:00.855Z,16.33
2018-08-07T01:41:29.516Z,15.73
2018-08-07T01:43:58.099Z,16.73
2018-08-07T01:46:26.737Z,16.87
2018-08-07T01:48:55.370Z,17.80
2018-08-07T01:51:24.006Z,18.07
2018-08-07T01:53:52.613Z,17.03
2018-08-07T01:56:21.223Z,20.73
2018-08-07T01:58:49.812Z,19.07
2018-08-07T02:01:18.431Z,19.23
2018-08-07T02:03:47.071Z,15.57
2018-08-07T02:06:15.766Z,18.87
2018-08-07T02:08:44.383Z,18.40
2018-08-07T02:11:13.021Z,18.70
2018-08-07T02:13:41.634Z,17.10
2018-08-07T02:16:10.240Z,15.60
2018-08-07T02:18:38.853Z,17.17
2018-08-07T02:21:07.598Z,15.57
2018-08-07T02:23:36.227Z,16.40
2018-08-07T02:26:04.993Z,19.47
2018-08-07T02:28:33.599Z,19.17
2018-08-07T02:31:02.287Z,18.27
2018-08-07T02:33:30.943Z,17.67
2018-08-07T02:35:59.661Z,17.27
2018-08-07T02:38:27.863Z,18.27
2018-08-07T02:40:56.504Z,19.23
2018-08-07T02:43:25.108Z,18.33
2018-08-07T02:45:53.734Z,19.00
2018-08-07T02:48:24.520Z,18.00
2018-08-07T02:50:53.212Z,17.23
2018-08-07T02:53:21.846Z,17.67
2018-08-07T02:55:50.449Z,17.67
2018-08-07T02:58:19.101Z,17.57
2018-08-07T03:00:47.688Z,16.93
2018-08-07T03:03:16.318Z,18.53
2018-08-07T03:05:44.924Z,18.30
2018-08-07T03:08:13.501Z,18.80
2018-08-07T03:10:42.153Z,18.57
2018-08-07T03:13:10.833Z,18.93
2018-08-07T03:15:39.484Z,17.90
2018-08-07T03:18:08.199Z,18.47
2018-08-07T03:20:36.773Z,17.77
2018-08-07T03:23:05.459Z,19.17
2018-08-07T03:25:34.065Z,20.07
2018-08-07T03:28:02.763Z,25.20
2018-08-07T03:30:31.293Z,20.33
2018-08-07T03:32:59.907Z,23.57
2018-08-07T03:35:28.458Z,19.77
2018-08-07T03:37:57.140Z,18.50
2018-08-07T03:40:25.761Z,18.57
2018-08-07T03:42:54.409Z,16.43
2018-08-07T03:45:22.948Z,16.43
2018-08-07T03:47:51.595Z,15.77
2018-08-07T03:50:20.236Z,16.57
2018-08-07T03:52:48.903Z,18.67
2018-08-07T03:55:18.643Z,16.13
2018-08-07T03:57:47.385Z,16.40
2018-08-07T04:00:17.796Z,16.20
2018-08-07T04:02:46.644Z,17.20
2018-08-07T04:05:15.369Z,15.60
2018-08-07T04:07:44.000Z,15.87
2018-08-07T04:10:14.212Z,18.03
2018-08-07T04:12:42.903Z,16.63
2018-08-07T04:15:13.092Z,16.77
2018-08-07T04:17:42.422Z,15.80
2018-08-07T04:20:13.606Z,16.77
2018-08-07T04:22:42.346Z,19.67
2018-08-07T04:25:11.017Z,16.93
2018-08-07T04:27:39.715Z,15.73
2018-08-07T04:30:12.995Z,15.63
2018-08-07T04:32:42.225Z,15.97
2018-08-07T04:35:11.260Z,15.63
2018-08-07T04:37:39.938Z,14.60
2018-08-07T04:40:09.407Z,15.93
2018-08-07T04:42:38.981Z,14.07
2018-08-07T04:45:10.413Z,15.00
2018-08-07T04:47:39.254Z,13.97
2018-08-07T04:50:08.974Z,16.57
2018-08-07T04:52:38.345Z,15.07
2018-08-07T04:55:08.330Z,20.50
2018-08-07T04:57:37.520Z,14.67
2018-08-07T05:00:13.816Z,15.43
2018-08-07T05:02:44.238Z,16.17
2018-08-07T05:05:13.143Z,17.00
2018-08-07T05:07:43.128Z,16.23
2018-08-07T05:10:14.369Z,15.40
2018-08-07T05:12:44.175Z,15.83
2018-08-07T05:15:13.548Z,16.13
2018-08-07T05:17:43.765Z,16.20
2018-08-07T05:20:12.478Z,18.37
2018-08-07T05:22:41.237Z,16.43
2018-08-07T05:25:11.042Z,15.70
2018-08-07T05:27:40.006Z,17.23
2018-08-07T05:30:10.144Z,19.07
2018-08-07T05:32:38.709Z,20.07
2018-08-07T05:35:07.450Z,16.93
2018-08-07T05:37:36.021Z,18.63
2018-08-07T05:40:05.045Z,19.70
2018-08-07T05:42:33.805Z,18.63
2018-08-07T05:45:02.437Z,17.70
2018-08-07T05:47:31.037Z,18.17
2018-08-07T05:49:59.777Z,17.40
2018-08-07T05:52:28.353Z,19.30
2018-08-07T05:54:56.976Z,22.07
2018-08-07T05:57:25.830Z,16.30
2018-08-07T05:59:54.461Z,16.23
2018-08-07T06:02:23.078Z,23.90
2018-08-07T06:04:51.672Z,17.03
2018-08-07T06:07:20.335Z,17.70
2018-08-07T06:09:49.186Z,14.37
2018-08-07T06:12:17.813Z,16.00
2018-08-07T06:14:46.437Z,14.43
2018-08-07T06:17:14.997Z,14.10
2018-08-07T06:19:43.605Z,14.17
2018-08-07T06:22:12.350Z,14.33
2018-08-07T06:24:41.083Z,13.83
2018-08-07T06:27:09.654Z,15.27
2018-08-07T06:29:38.339Z,13.50
2018-08-07T06:32:07.310Z,16.73
2018-08-07T06:34:35.938Z,15.00
2018-08-07T06:37:04.637Z,14.80
2018-08-07T06:39:33.258Z,15.50
2018-08-07T06:42:01.825Z,14.30
2018-08-07T06:44:30.384Z,12.97
2018-08-07T06:46:59.100Z,19.60
2018-08-07T06:49:27.723Z,17.67
2018-08-07T06:51:56.436Z,15.33
2018-08-07T06:54:25.021Z,14.77
2018-08-07T06:56:53.632Z,15.63
2018-08-07T06:59:22.249Z,17.00
2018-08-07T07:01:50.960Z,12.07
2018-08-07T07:04:19.505Z,11.33
2018-08-07T07:06:48.118Z,13.80
2018-08-07T07:09:16.739Z,16.10
2018-08-07T07:11:45.403Z,12.57
2018-08-07T07:14:13.979Z,13.20
2018-08-07T07:16:42.668Z,11.07
2018-08-07T07:19:11.274Z,12.00
2018-08-07T07:21:39.854Z,14.00
2018-08-07T07:24:08.518Z,11.60
2018-08-07T07:26:37.197Z,12.73
2018-08-07T07:29:05.788Z,11.40
2018-08-07T07:31:34.385Z,14.20
2018-08-07T07:34:03.025Z,11.43
2018-08-07T07:36:31.585Z,10.80
2018-08-07T07:39:00.178Z,10.93
2018-08-07T07:41:28.795Z,15.53
2018-08-07T07:43:57.461Z,11.13
2018-08-07T07:46:26.203Z,11.87
2018-08-07T07:48:54.808Z,10.60
2018-08-07T07:51:23.447Z,12.30
2018-08-07T07:53:52.062Z,13.17
2018-08-07T07:56:20.657Z,13.33
2018-08-07T07:58:49.328Z,12.97
2018-08-07T08:01:18.980Z,14.03
2018-08-07T08:03:47.552Z,16.20
2018-08-07T08:06:16.155Z,13.53
2018-08-07T08:08:44.776Z,17.83
2018-08-07T08:11:13.485Z,13.50
2018-08-07T08:13:42.798Z,13.40
2018-08-07T08:16:11.483Z,13.57
2018-08-07T08:18:40.150Z,13.80
2018-08-07T08:21:08.910Z,14.20
2018-08-07T08:23:37.578Z,13.73
2018-08-07T08:26:06.285Z,13.50
2018-08-07T08:28:34.762Z,13.73
2018-08-07T08:31:02.990Z,13.30
2018-08-07T08:33:31.626Z,13.33
2018-08-07T08:35:59.953Z,15.00
2018-08-07T08:38:28.489Z,15.60
2018-08-07T08:40:57.182Z,14.10
2018-08-07T08:43:25.796Z,13.47
2018-08-07T08:45:54.496Z,13.40
2018-08-07T08:48:23.227Z,13.80
2018-08-07T08:50:51.889Z,14.00
2018-08-07T08:53:20.466Z,12.97
2018-08-07T08:55:49.061Z,13.70
2018-08-07T08:58:17.722Z,12.87
2018-08-07T09:00:46.336Z,12.50
2018-08-07T09:03:15.070Z,13.07
2018-08-07T09:05:43.632Z,13.37
2018-08-07T09:08:12.250Z,13.10
2018-08-07T09:10:41.116Z,12.00
2018-08-07T09:13:09.596Z,13.90
2018-08-07T09:15:38.144Z,12.37
2018-08-07T09:18:07.115Z,13.33
2018-08-07T09:20:35.792Z,12.90
2018-08-07T09:23:04.525Z,12.90
2018-08-07T09:25:33.324Z,12.43
2018-08-07T09:30:36.250Z,14.13
2018-08-07T09:33:05.130Z,12.73
2018-08-07T09:35:33.699Z,11.70
2018-08-07T09:38:02.381Z,12.27
2018-08-07T09:40:30.953Z,12.50
2018-08-07T09:42:59.614Z,13.23
2018-08-07T09:45:31.139Z,13.17
2018-08-07T09:48:00.335Z,11.23
2018-08-07T09:50:29.012Z,11.17
2018-08-07T09:52:57.662Z,12.20
2018-08-07T09:55:26.313Z,13.10
2018-08-07T09:57:55.042Z,12.87
2018-08-07T10:00:29.031Z,12.03
2018-08-07T10:03:01.037Z,12.53
2018-08-07T10:05:31.250Z,16.00
2018-08-07T10:07:59.945Z,11.30
2018-08-07T10:10:29.042Z,14.07
2018-08-07T10:12:57.691Z,11.60
2018-08-07T10:15:26.359Z,13.90
2018-08-07T10:17:55.040Z,13.83
2018-08-07T10:20:23.628Z,11.47
2018-08-07T10:22:52.287Z,12.63
2018-08-07T10:25:21.253Z,12.43
2018-08-07T10:27:50.200Z,11.27
2018-08-07T10:30:21.531Z,11.33
2018-08-07T10:32:50.713Z,9.47
2018-08-07T10:35:19.463Z,9.73
2018-08-07T10:37:48.457Z,9.70
2018-08-07T10:40:19.615Z,8.10
2018-08-07T10:42:48.183Z,9.17
2018-08-07T10:45:20.283Z,8.03
2018-08-07T10:47:49.122Z,8.07
2018-08-07T10:50:21.164Z,7.63
2018-08-07T10:52:50.159Z,9.20
2018-08-07T10:55:19.334Z,8.90
2018-08-07T10:57:49.440Z,8.00
2018-08-07T11:00:23.532Z,7.57
2018-08-07T11:02:52.901Z,8.53
2018-08-07T11:05:22.163Z,7.53
2018-08-07T11:07:50.929Z,7.90
2018-08-07T11:10:20.062Z,7.60
2018-08-07T11:12:48.694Z,7.70
2018-08-07T11:15:21.528Z,7.20
2018-08-07T11:17:50.915Z,8.83
2018-08-07T11:20:19.724Z,8.37
2018-08-07T11:22:49.431Z,7.90
2018-08-07T11:25:19.352Z,7.90
2018-08-07T11:27:48.030Z,9.07
2018-08-07T11:30:18.558Z,8.10
2018-08-07T11:32:47.561Z,9.10
2018-08-07T11:35:16.672Z,7.73
2018-08-07T11:37:46.975Z,8.60
2018-08-07T11:40:17.497Z,8.10
2018-08-07T11:42:47.081Z,8.50
2018-08-07T11:45:17.001Z,7.30
2018-08-07T11:47:45.695Z,8.50
2018-08-07T11:50:17.180Z,7.53
2018-08-07T11:52:45.932Z,9.27
2018-08-07T11:55:15.983Z,7.20
2018-08-07T11:57:45.429Z,8.43
2018-08-07T12:00:18.817Z,7.83
2018-08-07T12:02:47.200Z,7.87
2018-08-07T12:05:16.368Z,8.87
2018-08-07T12:07:44.972Z,10.10
2018-08-07T12:10:14.367Z,8.80
2018-08-07T12:12:43.765Z,7.87
2018-08-07T12:15:14.996Z,7.50
2018-08-07T12:17:43.740Z,9.70
2018-08-07T12:20:12.375Z,10.43
2018-08-07T12:22:41.079Z,7.30
2018-08-07T12:25:10.242Z,10.53
2018-08-07T12:27:38.913Z,6.60
2018-08-07T12:30:12.191Z,5.53
2018-08-07T12:32:40.850Z,8.13
2018-08-07T12:35:09.540Z,5.90
2018-08-07T12:37:38.462Z,4.63
2018-08-07T12:40:10.335Z,6.00
2018-08-07T12:42:39.069Z,6.50
2018-08-07T12:45:07.838Z,5.43
2018-08-07T12:47:36.798Z,6.93
2018-08-07T12:50:06.906Z,5.37
2018-08-07T12:52:35.638Z,4.70
2018-08-07T12:55:04.518Z,4.77
2018-08-07T12:57:33.197Z,7.47
2018-08-07T13:00:02.393Z,6.27
2018-08-07T13:02:31.088Z,5.13
2018-08-07T13:04:59.660Z,5.40
2018-08-07T13:07:28.277Z,8.30
2018-08-07T13:09:56.991Z,6.60
2018-08-07T13:12:25.611Z,8.40
2018-08-07T13:14:54.275Z,6.83
2018-08-07T13:17:22.915Z,9.10
2018-08-07T13:19:51.472Z,6.23
2018-08-07T13:22:20.094Z,10.93
2018-08-07T13:24:48.339Z,6.90
2018-08-07T13:27:16.998Z,8.60
2018-08-07T13:29:45.645Z,8.50
2018-08-07T13:32:14.286Z,8.87
2018-08-07T13:34:42.974Z,10.00
2018-08-07T13:37:11.795Z,8.60
2018-08-07T13:39:40.439Z,8.33
2018-08-07T13:42:09.219Z,9.67
2018-08-07T13:44:37.832Z,7.43
2018-08-07T13:47:06.956Z,7.93
2018-08-07T13:49:35.622Z,9.17
2018-08-07T13:52:04.369Z,8.37
2018-08-07T13:54:32.958Z,8.87
2018-08-07T13:57:01.660Z,9.67
2018-08-07T13:59:30.261Z,7.73
2018-08-07T14:01:59.017Z,8.80
2018-08-07T14:04:27.682Z,9.13
2018-08-07T14:06:56.336Z,8.37
2018-08-07T14:09:25.053Z,11.73
2018-08-07T14:11:53.669Z,8.83
2018-08-07T14:14:23.297Z,9.80
2018-08-07T14:16:52.021Z,7.93
2018-08-07T14:19:20.626Z,9.50
2018-08-07T14:21:49.354Z,11.10
2018-08-07T14:24:18.048Z,11.00
2018-08-07T14:26:46.751Z,8.80
2018-08-07T14:29:15.402Z,9.63
2018-08-07T14:31:44.037Z,8.40
2018-08-07T14:34:12.694Z,8.50
2018-08-07T14:36:42.438Z,8.63
2018-08-07T14:39:11.470Z,8.30
2018-08-07T14:41:40.324Z,7.70
2018-08-07T14:44:09.019Z,7.00
2018-08-07T14:46:37.579Z,8.50
2018-08-07T14:49:06.267Z,10.30
2018-08-07T14:51:34.580Z,7.47
2018-08-07T14:54:03.260Z,9.40
2018-08-07T14:56:31.861Z,7.27
2018-08-07T14:59:00.469Z,7.83
2018-08-07T15:01:29.134Z,7.40
2018-08-07T15:03:57.909Z,8.20
2018-08-07T15:06:26.679Z,7.53
2018-08-07T15:08:55.186Z,7.90
2018-08-07T15:11:23.925Z,8.60
2018-08-07T15:13:52.545Z,7.47
2018-08-07T15:16:21.173Z,6.87
2018-08-07T15:18:49.784Z,8.60
2018-08-07T15:21:17.979Z,7.53
2018-08-07T15:23:46.625Z,7.37
2018-08-07T15:26:15.295Z,6.87
2018-08-07T15:28:43.923Z,6.17
2018-08-07T15:31:12.528Z,8.43
2018-08-07T15:33:41.124Z,7.50
2018-08-07T15:36:09.756Z,6.90
2018-08-07T15:38:38.407Z,13.03
2018-08-07T15:41:07.050Z,7.07
2018-08-07T15:43:35.830Z,6.00
2018-08-07T15:46:04.483Z,5.80
2018-08-07T15:48:33.144Z,7.20
2018-08-07T15:51:01.814Z,7.23
2018-08-07T15:53:30.548Z,6.53
2018-08-07T15:55:59.088Z,6.37
2018-08-07T15:58:27.744Z,7.17
2018-08-07T16:00:56.340Z,6.10
2018-08-07T16:03:25.008Z,6.50
2018-08-07T16:05:53.302Z,7.30
2018-08-07T16:08:21.872Z,6.10
2018-08-07T16:10:50.473Z,6.20
2018-08-07T16:13:19.272Z,6.33
2018-08-07T16:15:47.988Z,6.57
2018-08-07T16:18:16.578Z,7.83
2018-08-07T16:20:45.148Z,7.47
2018-08-07T16:23:13.709Z,6.60
2018-08-07T16:25:42.338Z,7.80
2018-08-07T16:28:10.663Z,7.33
2018-08-07T16:30:39.221Z,7.27
2018-08-07T16:33:07.806Z,11.03
2018-08-07T16:35:36.095Z,6.60
2018-08-07T16:38:04.715Z,7.47
2018-08-07T16:40:33.630Z,7.27
2018-08-07T16:43:03.181Z,6.70
2018-08-07T16:45:32.865Z,7.60
2018-08-07T16:48:01.182Z,7.17
2018-08-07T16:50:29.918Z,7.07
2018-08-07T16:52:59.141Z,7.13
2018-08-07T16:55:29.264Z,6.80
2018-08-07T16:57:57.997Z,7.10
2018-08-07T17:00:26.716Z,6.90
2018-08-07T17:02:55.524Z,6.23
2018-08-07T17:05:24.311Z,7.33
2018-08-07T17:07:53.085Z,6.80
2018-08-07T17:10:24.588Z,7.70
2018-08-07T17:12:53.357Z,7.30
2018-08-07T17:15:22.316Z,6.70
2018-08-07T17:17:51.259Z,7.53
2018-08-07T17:20:21.074Z,7.27
2018-08-07T17:22:50.153Z,7.10
2018-08-07T17:25:20.081Z,7.97
2018-08-07T17:27:49.255Z,7.60
2018-08-07T17:30:19.712Z,7.37
2018-08-07T17:32:49.405Z,7.60
2018-08-07T17:35:20.696Z,8.30
2018-08-07T17:37:50.718Z,7.93
2018-08-07T17:40:20.945Z,7.80
2018-08-07T17:42:49.672Z,7.80
2018-08-07T17:45:18.395Z,8.37
2018-08-07T17:47:47.137Z,7.97
2018-08-07T17:50:17.829Z,7.03
2018-08-07T17:52:46.742Z,7.13
2018-08-07T17:55:15.570Z,7.67
2018-08-07T17:57:44.334Z,7.87
2018-08-07T18:00:17.216Z,8.00
2018-08-07T18:02:46.122Z,7.37
2018-08-07T18:05:14.871Z,8.03
2018-08-07T18:07:46.276Z,9.33
2018-08-07T18:10:16.445Z,8.10
2018-08-07T18:12:45.198Z,8.77
2018-08-07T18:15:15.222Z,9.00
2018-08-07T18:17:44.360Z,7.43
2018-08-07T18:20:15.530Z,9.10
2018-08-07T18:22:44.148Z,10.13
2018-08-07T18:25:12.807Z,7.27
2018-08-07T18:27:41.640Z,9.00
2018-08-07T18:30:14.662Z,8.23
2018-08-07T18:32:43.722Z,9.33
2018-08-07T18:35:17.277Z,13.67
2018-08-07T18:37:45.926Z,17.70
2018-08-07T18:40:14.640Z,10.03
2018-08-07T18:42:43.280Z,9.77
2018-08-07T18:45:13.834Z,10.20
2018-08-07T18:47:43.339Z,9.40
2018-08-07T18:50:13.952Z,9.97
2018-08-07T18:52:42.683Z,11.03
2018-08-07T18:55:13.538Z,9.50
2018-08-07T18:57:42.802Z,9.10
2018-08-07T19:00:14.120Z,9.73
2018-08-07T19:02:42.514Z,9.87
2018-08-07T19:05:13.970Z,9.77
2018-08-07T19:07:42.721Z,9.30
2018-08-07T19:10:12.167Z,9.40
2018-08-07T19:12:40.911Z,9.90
2018-08-07T19:15:10.321Z,9.37
2018-08-07T19:17:38.952Z,10.63
2018-08-07T19:20:08.645Z,11.07
2018-08-07T19:22:37.362Z,10.07
2018-08-07T19:25:07.343Z,10.80
2018-08-07T19:27:36.061Z,14.30
2018-08-07T19:30:07.409Z,11.10
2018-08-07T19:32:35.947Z,11.33
2018-08-07T19:35:04.889Z,10.33
2018-08-07T19:37:33.409Z,10.17
2018-08-07T19:40:02.384Z,10.40
2018-08-07T19:42:30.962Z,11.00
2018-08-07T19:44:59.573Z,11.87
2018-08-07T19:47:28.279Z,10.97
2018-08-07T19:49:56.917Z,12.70
2018-08-07T19:52:25.494Z,14.40
2018-08-07T19:54:54.185Z,13.00
2018-08-07T19:57:22.795Z,11.37
2018-08-07T19:59:51.384Z,12.20
2018-08-07T20:02:20.010Z,10.80
2018-08-07T20:04:48.695Z,11.03
2018-08-07T20:07:17.316Z,11.50
2018-08-07T20:09:45.885Z,10.70
2018-08-07T20:12:14.537Z,15.50
2018-08-07T20:14:43.127Z,11.40
2018-08-07T20:17:11.932Z,11.80
2018-08-07T20:19:40.537Z,14.20
2018-08-07T20:22:13.508Z,15.60
2018-08-07T20:24:42.167Z,11.80
2018-08-07T20:27:10.820Z,13.43
2018-08-07T20:29:39.542Z,12.23
2018-08-07T20:32:08.549Z,14.27
2018-08-07T20:34:37.139Z,12.37
2018-08-07T20:37:06.039Z,14.87
2018-08-07T20:39:34.690Z,13.33
2018-08-07T20:42:03.390Z,12.90
2018-08-07T20:44:31.917Z,12.90
2018-08-07T20:47:00.566Z,12.17
2018-08-07T20:49:29.160Z,12.43
2018-08-07T20:51:57.810Z,12.87
2018-08-07T20:54:26.468Z,12.63
2018-08-07T20:56:55.338Z,13.20
2018-08-07T20:59:23.981Z,12.53
2018-08-07T21:01:52.633Z,12.70
2018-08-07T21:04:21.285Z,12.80
2018-08-07T21:06:49.981Z,12.20
2018-08-07T21:09:18.646Z,13.77
2018-08-07T21:11:47.737Z,15.47
2018-08-07T21:14:16.363Z,13.97
2018-08-07T21:16:44.984Z,13.50
2018-08-07T21:19:13.541Z,17.90
2018-08-07T21:21:42.243Z,14.03
2018-08-07T21:24:10.865Z,13.70
2018-08-07T21:26:39.520Z,14.30
2018-08-07T21:29:08.133Z,12.77
2018-08-07T21:31:36.808Z,12.17
2018-08-07T21:34:05.486Z,12.43
2018-08-07T21:36:34.132Z,13.57
2018-08-07T21:39:02.864Z,13.10
2018-08-07T21:41:31.561Z,11.70
2018-08-07T21:44:00.140Z,12.00
2018-08-07T21:46:28.444Z,12.60
2018-08-07T21:48:57.127Z,11.50
2018-08-07T21:51:25.761Z,13.00
2018-08-07T21:53:54.034Z,14.00
2018-08-07T21:56:22.594Z,11.73
2018-08-07T21:58:51.291Z,10.80
2018-08-07T22:01:19.978Z,11.27
2018-08-07T22:03:48.279Z,12.37
2018-08-07T22:06:16.911Z,12.27
2018-08-07T22:08:45.509Z,14.33
2018-08-07T22:11:14.399Z,11.10
2018-08-07T22:13:42.985Z,11.73
2018-08-07T22:16:11.634Z,11.33
2018-08-07T22:18:40.260Z,12.20
2018-08-07T22:21:08.941Z,13.40
2018-08-07T22:23:37.602Z,13.53
2018-08-07T22:26:06.308Z,13.23
2018-08-07T22:28:34.973Z,12.33
2018-08-07T22:31:03.664Z,12.07
2018-08-07T22:33:32.329Z,11.70
2018-08-07T22:36:01.028Z,13.47
2018-08-07T22:38:29.681Z,11.13
2018-08-07T22:40:58.185Z,11.83
2018-08-07T22:43:26.826Z,11.67
2018-08-07T22:45:55.518Z,11.10
2018-08-07T22:48:24.191Z,12.00
2018-08-07T22:50:52.808Z,11.50
2018-08-07T22:53:21.494Z,11.43
2018-08-07T22:55:50.164Z,12.73
2018-08-07T22:58:18.798Z,12.93
2018-08-07T23:00:47.332Z,12.10
2018-08-07T23:03:15.950Z,10.63
2018-08-07T23:05:44.572Z,15.23
2018-08-07T23:08:13.232Z,10.97
2018-08-07T23:10:41.812Z,13.17
2018-08-07T23:13:10.436Z,11.40
2018-08-07T23:15:39.040Z,11.47
2018-08-07T23:18:07.779Z,12.07
2018-08-07T23:20:36.448Z,11.77
2018-08-07T23:23:05.106Z,12.23
2018-08-07T23:25:33.743Z,12.70
2018-08-07T23:28:02.366Z,13.90
2018-08-07T23:30:30.977Z,12.87
2018-08-07T23:32:59.601Z,14.23
2018-08-07T23:35:28.173Z,12.43
2018-08-07T23:37:56.792Z,12.90
2018-08-07T23:40:25.323Z,13.73
2018-08-07T23:42:53.940Z,13.30
2018-08-07T23:45:22.559Z,12.93
2018-08-07T23:47:51.083Z,12.00
2018-08-07T23:50:19.722Z,12.73
2018-08-07T23:52:48.345Z,13.53
2018-08-07T23:55:16.959Z,11.73
2018-08-07T23:57:45.569Z,13.73
